createdAt,value
2019-04-10T00:01:19.611Z,8.79
2019-04-10T00:05:27.740Z,8.82
2019-04-10T00:09:32.926Z,8.68
2019-04-10T00:13:38.531Z,8.68
2019-04-10T00:17:45.438Z,8.64
2019-04-10T00:21:50.614Z,8.55
2019-04-10T00:25:55.867Z,8.55
2019-04-10T00:30:01.098Z,8.39
2019-04-10T00:34:07.382Z,8.36
2019-04-10T00:38:13.595Z,8.24
2019-04-10T00:42:19.027Z,8.24
2019-04-10T00:46:24.347Z,8.19
2019-04-10T00:50:30.625Z,8.12
2019-04-10T00:54:35.934Z,8.04
2019-04-10T00:58:41.598Z,7.99
2019-04-10T01:02:47.091Z,7.88
2019-04-10T01:06:52.540Z,7.85
2019-04-10T01:11:01.022Z,7.85
2019-04-10T01:15:06.922Z,7.68
2019-04-10T01:19:12.170Z,7.71
2019-04-10T01:23:17.377Z,7.62
2019-04-10T01:27:23.600Z,7.54
2019-04-10T01:31:28.910Z,7.54
2019-04-10T01:35:34.386Z,7.41
2019-04-10T01:39:40.247Z,7.34
2019-04-10T01:43:45.509Z,7.28
2019-04-10T01:47:51.721Z,7.22
2019-04-10T01:51:57.399Z,7.19
2019-04-10T01:56:03.166Z,7.16
2019-04-10T02:00:13.211Z,7.11
2019-04-10T02:04:18.484Z,7.01
2019-04-10T02:08:23.976Z,6.93
2019-04-10T02:12:29.211Z,6.86
2019-04-10T02:16:34.763Z,6.78
2019-04-10T02:20:39.984Z,6.72
2019-04-10T02:24:45.785Z,6.72
2019-04-10T02:28:51.389Z,6.63
2019-04-10T02:32:57.984Z,6.61
2019-04-10T02:37:03.206Z,6.59
2019-04-10T02:41:10.050Z,6.50
2019-04-10T02:45:16.886Z,6.50
2019-04-10T02:49:22.574Z,6.43
2019-04-10T02:53:27.750Z,6.40
2019-04-10T02:57:33.767Z,6.33
2019-04-10T03:01:39.981Z,6.35
2019-04-10T03:05:46.571Z,6.27
2019-04-10T03:10:05.038Z,6.27
2019-04-10T03:14:04.364Z,6.14
2019-04-10T03:18:09.733Z,6.10
2019-04-10T03:22:14.931Z,6.03
2019-04-10T03:26:20.114Z,5.96
2019-04-10T03:30:27.197Z,5.97
2019-04-10T03:34:36.492Z,5.97
2019-04-10T03:38:54.220Z,5.87
2019-04-10T03:42:47.441Z,5.75
2019-04-10T03:46:53.864Z,5.75
2019-04-10T03:50:59.108Z,5.71
2019-04-10T03:55:04.945Z,5.62
2019-04-10T03:59:10.216Z,5.53
2019-04-10T04:03:16.126Z,5.55
2019-04-10T04:07:21.356Z,5.51
2019-04-10T04:11:26.558Z,5.40
2019-04-10T04:15:32.281Z,5.41
2019-04-10T04:19:38.013Z,5.30
2019-04-10T04:23:43.133Z,5.23
2019-04-10T04:27:48.273Z,5.19
2019-04-10T04:31:54.509Z,5.47
2019-04-10T04:35:59.996Z,5.33
2019-04-10T04:40:05.540Z,5.39
2019-04-10T04:44:10.715Z,5.19
2019-04-10T04:48:17.010Z,5.14
2019-04-10T04:52:22.204Z,5.10
2019-04-10T04:56:28.221Z,4.98
2019-04-10T05:00:34.052Z,5.18
2019-04-10T05:04:39.636Z,4.91
2019-04-10T05:08:44.826Z,5.05
2019-04-10T05:12:50.183Z,4.95
2019-04-10T05:16:55.508Z,5.06
2019-04-10T05:21:03.789Z,5.03
2019-04-10T05:25:09.138Z,4.83
2019-04-10T05:29:15.382Z,5.08
2019-04-10T05:33:20.651Z,5.05
2019-04-10T05:37:25.905Z,5.27
2019-04-10T05:41:31.445Z,4.81
2019-04-10T05:45:36.618Z,5.18
2019-04-10T05:49:41.809Z,5.36
2019-04-10T05:53:47.886Z,4.96
2019-04-10T05:57:53.874Z,5.49
2019-04-10T06:01:59.042Z,5.23
2019-04-10T06:06:04.197Z,5.04
2019-04-10T06:10:10.832Z,5.29
2019-04-10T06:14:16.329Z,5.74
2019-04-10T06:18:22.770Z,5.93
2019-04-10T06:22:28.468Z,5.12
2019-04-10T06:26:35.481Z,5.00
2019-04-10T06:30:41.880Z,4.97
2019-04-10T06:34:47.867Z,4.96
2019-04-10T06:38:55.106Z,5.15
2019-04-10T06:43:01.033Z,4.99
2019-04-10T06:47:06.448Z,5.15
2019-04-10T06:51:12.859Z,5.34
2019-04-10T06:55:18.580Z,5.38
2019-04-10T06:59:23.847Z,5.58
2019-04-10T07:03:46.951Z,5.67
2019-04-10T07:07:49.878Z,5.88
2019-04-10T07:11:42.951Z,6.00
2019-04-10T07:15:48.146Z,5.94
2019-04-10T07:19:55.545Z,6.17
2019-04-10T07:24:05.043Z,6.10
2019-04-10T07:28:09.726Z,6.52
2019-04-10T07:32:15.055Z,6.12
2019-04-10T07:36:20.458Z,6.37
2019-04-10T07:40:25.617Z,6.42
2019-04-10T07:44:31.109Z,6.88
2019-04-10T07:48:36.412Z,7.01
2019-04-10T07:52:41.642Z,7.06
2019-04-10T07:56:47.248Z,6.97
2019-04-10T08:00:53.331Z,7.27
2019-04-10T08:04:58.619Z,7.40
2019-04-10T08:09:06.388Z,7.13
2019-04-10T08:13:12.186Z,7.62
2019-04-10T08:17:17.314Z,7.63
2019-04-10T08:21:22.398Z,7.77
2019-04-10T08:25:35.304Z,8.02
2019-04-10T08:29:40.903Z,8.08
2019-04-10T08:33:46.755Z,8.08
2019-04-10T08:37:52.791Z,8.92
2019-04-10T08:42:00.541Z,9.01
2019-04-10T08:46:06.789Z,9.21
2019-04-10T08:50:12.376Z,9.08
2019-04-10T08:54:18.467Z,8.98
2019-04-10T08:58:23.539Z,9.58
2019-04-10T09:02:30.406Z,9.59
2019-04-10T09:06:38.188Z,9.99
2019-04-10T09:10:43.454Z,9.40
2019-04-10T09:14:49.571Z,9.41
2019-04-10T09:18:59.822Z,9.96
2019-04-10T09:23:29.795Z,10.03
2019-04-10T09:27:21.285Z,10.22
2019-04-10T09:31:28.046Z,10.19
2019-04-10T09:35:36.293Z,10.15
2019-04-10T09:39:47.964Z,10.33
2019-04-10T09:43:54.288Z,10.33
2019-04-10T09:47:59.993Z,10.53
2019-04-10T09:52:05.278Z,10.48
2019-04-10T09:56:11.531Z,11.02
2019-04-10T10:00:17.459Z,11.46
2019-04-10T10:04:23.655Z,12.08
2019-04-10T10:08:28.944Z,11.30
2019-04-10T10:12:34.347Z,11.78
2019-04-10T10:16:40.043Z,11.32
2019-04-10T10:20:45.999Z,11.03
2019-04-10T10:24:51.287Z,11.12
2019-04-10T10:28:56.691Z,11.86
2019-04-10T10:33:01.811Z,12.31
2019-04-10T10:37:10.409Z,12.61
2019-04-10T10:41:16.455Z,11.59
2019-04-10T10:45:22.894Z,12.12
2019-04-10T10:49:28.591Z,11.93
2019-04-10T10:53:34.551Z,11.88
2019-04-10T10:57:39.758Z,12.40
2019-04-10T11:01:46.339Z,12.76
2019-04-10T11:05:52.764Z,12.64
2019-04-10T11:09:58.592Z,12.69
2019-04-10T11:14:04.706Z,12.36
2019-04-10T11:18:10.762Z,13.60
2019-04-10T11:22:21.809Z,12.76
2019-04-10T11:26:24.221Z,13.13
2019-04-10T11:30:32.392Z,12.35
2019-04-10T11:34:38.207Z,13.58
2019-04-10T11:38:45.375Z,13.58
2019-04-10T11:42:52.651Z,13.61
2019-04-10T11:46:58.907Z,13.92
2019-04-10T11:51:06.738Z,13.16
2019-04-10T11:55:16.113Z,13.09
2019-04-10T11:59:22.064Z,12.78
2019-04-10T12:03:27.157Z,13.25
2019-04-10T12:11:42.605Z,14.07
2019-04-10T12:15:48.412Z,13.75
2019-04-10T12:19:54.325Z,13.16
2019-04-10T12:24:01.146Z,13.86
2019-04-10T12:28:06.622Z,13.74
2019-04-10T12:32:12.417Z,13.95
2019-04-10T12:36:18.368Z,13.78
2019-04-10T12:40:23.603Z,13.94
2019-04-10T12:44:29.643Z,14.87
2019-04-10T12:48:34.927Z,14.13
2019-04-10T12:52:40.907Z,14.37
2019-04-10T12:56:46.435Z,13.88
2019-04-10T13:00:52.159Z,14.23
2019-04-10T13:04:58.724Z,14.15
2019-04-10T13:09:10.732Z,14.31
2019-04-10T13:13:14.325Z,15.31
2019-04-10T13:17:20.258Z,15.21
2019-04-10T13:21:26.388Z,15.14
2019-04-10T13:25:35.208Z,14.72
2019-04-10T13:29:52.216Z,14.60
2019-04-10T13:34:05.862Z,14.15
2019-04-10T13:38:11.161Z,15.31
2019-04-10T13:42:16.865Z,16.06
2019-04-10T13:46:22.013Z,14.66
2019-04-10T13:50:27.173Z,14.19
2019-04-10T13:54:32.990Z,16.90
2019-04-10T13:58:38.371Z,15.58
2019-04-10T14:02:43.713Z,15.59
2019-04-10T14:06:49.359Z,15.12
2019-04-10T14:10:57.100Z,16.32
2019-04-10T14:15:14.028Z,15.83
2019-04-10T14:19:25.532Z,15.89
2019-04-10T14:23:31.445Z,15.86
2019-04-10T14:27:40.821Z,15.56
2019-04-10T14:31:53.182Z,16.10
2019-04-10T14:36:03.414Z,16.59
2019-04-10T14:40:22.145Z,15.96
2019-04-10T14:44:36.783Z,16.44
2019-04-10T14:48:46.689Z,16.04
2019-04-10T14:52:51.965Z,17.23
2019-04-10T14:57:11.353Z,16.49
2019-04-10T15:01:17.680Z,15.90
2019-04-10T15:05:23.775Z,15.03
2019-04-10T15:09:28.978Z,15.87
2019-04-10T15:13:34.084Z,15.53
2019-04-10T15:17:40.246Z,15.26
2019-04-10T15:21:45.511Z,16.50
2019-04-10T15:25:57.704Z,15.69
2019-04-10T15:30:06.240Z,15.90
2019-04-10T15:34:11.957Z,15.50
2019-04-10T15:38:18.554Z,15.35
2019-04-10T15:42:27.819Z,17.08
2019-04-10T15:46:33.244Z,15.27
2019-04-10T15:50:39.355Z,15.36
2019-04-10T15:54:45.893Z,16.50
2019-04-10T15:58:52.023Z,16.36
2019-04-10T16:02:57.752Z,16.23
2019-04-10T16:07:04.149Z,16.67
2019-04-10T16:11:36.190Z,15.63
2019-04-10T16:15:42.887Z,15.77
2019-04-10T16:19:59.824Z,15.70
2019-04-10T16:24:09.376Z,15.04
2019-04-10T16:28:29.254Z,14.80
2019-04-10T16:32:37.998Z,15.79
2019-04-10T16:36:54.278Z,15.59
2019-04-10T16:41:02.674Z,14.35
2019-04-10T16:45:15.823Z,14.77
2019-04-10T16:49:22.419Z,14.52
2019-04-10T16:53:27.997Z,14.53
2019-04-10T16:57:33.181Z,15.40
2019-04-10T17:01:39.234Z,13.53
2019-04-10T17:05:44.466Z,14.30
2019-04-10T17:09:50.437Z,13.51
2019-04-10T17:13:57.185Z,13.39
2019-04-10T17:18:03.146Z,13.39
2019-04-10T17:22:08.983Z,12.99
2019-04-10T17:26:14.956Z,13.32
2019-04-10T17:30:25.355Z,12.71
2019-04-10T17:34:32.752Z,13.13
2019-04-10T17:38:42.496Z,13.40
2019-04-10T17:42:48.638Z,13.48
2019-04-10T17:46:55.593Z,12.25
2019-04-10T17:51:03.830Z,11.95
2019-04-10T17:55:11.496Z,11.90
2019-04-10T17:59:18.428Z,10.82
2019-04-10T18:03:46.036Z,10.54
2019-04-10T18:07:48.133Z,10.42
2019-04-10T18:12:27.946Z,10.39
2019-04-10T18:16:36.086Z,10.26
2019-04-10T18:20:43.003Z,10.18
2019-04-10T18:24:49.542Z,9.98
2019-04-10T18:28:54.752Z,9.80
2019-04-10T18:33:00.315Z,9.46
2019-04-10T18:37:05.653Z,9.51
2019-04-10T18:41:11.773Z,9.25
2019-04-10T18:45:17.582Z,9.32
2019-04-10T18:49:23.200Z,9.03
2019-04-10T18:53:28.940Z,8.95
2019-04-10T18:57:35.670Z,8.93
2019-04-10T19:02:12.285Z,8.80
2019-04-10T19:06:22.848Z,8.71
2019-04-10T19:10:28.692Z,8.65
2019-04-10T19:14:37.120Z,8.48
2019-04-10T19:19:02.059Z,8.49
2019-04-10T19:23:07.335Z,8.28
2019-04-10T19:27:12.689Z,8.29
2019-04-10T19:31:23.032Z,8.13
2019-04-10T19:35:28.782Z,8.13
2019-04-10T19:39:34.220Z,8.11
2019-04-10T19:43:40.232Z,8.01
2019-04-10T19:47:46.361Z,7.84
2019-04-10T19:51:51.825Z,7.71
2019-04-10T19:55:56.965Z,7.82
2019-04-10T20:00:02.648Z,7.65
2019-04-10T20:04:08.269Z,7.51
2019-04-10T20:08:13.769Z,7.45
2019-04-10T20:12:20.255Z,7.48
2019-04-10T20:16:25.534Z,7.38
2019-04-10T20:20:31.155Z,7.44
2019-04-10T20:24:36.749Z,7.36
2019-04-10T20:28:41.956Z,7.20
2019-04-10T20:32:47.276Z,7.06
2019-04-10T20:36:53.298Z,7.07
2019-04-10T20:40:58.780Z,7.02
2019-04-10T20:45:05.186Z,6.95
2019-04-10T20:49:10.420Z,6.85
2019-04-10T20:53:15.967Z,6.78
2019-04-10T20:57:21.516Z,6.62
2019-04-10T21:01:26.767Z,6.73
2019-04-10T21:05:31.956Z,6.69
2019-04-10T21:09:37.411Z,6.55
2019-04-10T21:13:42.633Z,6.45
2019-04-10T21:17:48.682Z,6.43
2019-04-10T21:21:55.441Z,6.32
2019-04-10T21:26:00.711Z,6.36
2019-04-10T21:30:29.849Z,6.20
2019-04-10T21:34:39.195Z,6.08
2019-04-10T21:38:45.199Z,6.03
2019-04-10T21:42:51.934Z,6.10
2019-04-10T21:46:57.248Z,5.95
2019-04-10T21:51:02.637Z,5.89
2019-04-10T21:55:07.847Z,5.83
2019-04-10T21:59:14.835Z,5.86
2019-04-10T22:03:21.022Z,5.75
2019-04-10T22:07:34.546Z,5.70
2019-04-10T22:11:41.311Z,5.69
2019-04-10T22:15:47.418Z,5.53
2019-04-10T22:19:52.864Z,5.56
2019-04-10T22:23:58.965Z,5.44
2019-04-10T22:28:04.320Z,5.39
2019-04-10T22:32:10.717Z,5.30
2019-04-10T22:36:17.083Z,5.25
2019-04-10T22:40:23.513Z,5.31
2019-04-10T22:44:37.548Z,5.29
2019-04-10T22:48:35.855Z,5.06
2019-04-10T22:52:42.212Z,5.10
2019-04-10T22:56:47.808Z,4.75
2019-04-10T23:00:53.878Z,4.88
2019-04-10T23:04:59.787Z,4.85
2019-04-10T23:09:09.709Z,4.67
2019-04-10T23:13:16.065Z,4.74
2019-04-10T23:17:21.498Z,4.71
2019-04-10T23:21:26.752Z,4.68
2019-04-10T23:25:32.157Z,4.66
2019-04-10T23:29:38.171Z,4.56
2019-04-10T23:33:44.025Z,4.46
2019-04-10T23:37:49.182Z,4.43
2019-04-10T23:41:54.837Z,4.31
2019-04-10T23:46:00.031Z,4.17
2019-04-10T23:50:06.028Z,4.12
2019-04-10T23:54:11.241Z,4.08
2019-04-10T23:58:16.455Z,4.05
